Time;durP1;ratioP1;P1;durP2;ratioP2;P2;SDS_P1;SDS_P2;PMS_P1;PMS_P2;Temp;Humidity;BMP_temperature;BMP_pressure;BME280_temperature;BME280_humidity;BME280_pressure;Samples;Min_cycle;Max_cycle;Signal;HPM_P1;HPM_P2
2022/05/15 00:01:05;;;;;;;3.90;3.60;;;;;;;10.09;100.00;97328.69;4956674;28;20513;-62
2022/05/15 00:03:34;;;;;;;4.27;3.87;;;;;;;10.03;100.00;97326.72;4964809;28;20229;-54
2022/05/15 00:06:05;;;;;;;4.33;3.93;;;;;;;10.04;100.00;97325.75;4931206;28;20235;-67
2022/05/15 00:08:34;;;;;;;6.07;4.00;;;;;;;9.97;100.00;97319.50;4967219;28;20296;-58
2022/05/15 00:11:03;;;;;;;4.00;3.70;;;;;;;9.98;100.00;97319.34;4953761;28;20638;-64
2022/05/15 00:13:32;;;;;;;4.20;3.90;;;;;;;9.99;100.00;97323.63;4959112;28;20478;-60
2022/05/15 00:16:00;;;;;;;4.73;4.07;;;;;;;10.00;100.00;97327.06;4959021;28;20312;-65
2022/05/15 00:18:30;;;;;;;4.33;4.07;;;;;;;9.99;100.00;97318.31;4966706;28;20424;-61
2022/05/15 00:21:01;;;;;;;4.33;4.03;;;;;;;10.01;100.00;97319.97;4965817;28;20213;-56
2022/05/15 00:23:29;;;;;;;4.23;3.90;;;;;;;9.98;100.00;97319.34;4943583;28;20234;-59
2022/05/15 00:25:57;;;;;;;5.70;4.30;;;;;;;9.93;100.00;97315.56;4974017;28;20297;-59
2022/05/15 00:28:25;;;;;;;3.70;3.50;;;;;;;10.06;100.00;97321.09;4956712;28;20300;-62
2022/05/15 00:30:54;;;;;;;4.80;4.40;;;;;;;10.06;100.00;97314.97;4970046;28;20213;-66
2022/05/15 00:33:22;;;;;;;4.57;4.27;;;;;;;9.99;100.00;97317.50;4968036;28;20507;-60
2022/05/15 00:35:52;;;;;;;4.27;3.97;;;;;;;9.92;100.00;97322.69;4969583;28;20609;-66
2022/05/15 00:38:21;;;;;;;4.17;3.73;;;;;;;9.89;100.00;97316.91;4930004;28;20286;-65
2022/05/15 00:40:50;;;;;;;4.63;4.17;;;;;;;9.79;100.00;97315.31;4971615;28;20225;-59
2022/05/15 00:43:37;;;;;;;5.23;4.67;;;;;;;9.77;100.00;97319.13;4955846;28;21201;-62
2022/05/15 00:46:08;;;;;;;4.77;4.33;;;;;;;9.72;100.00;97318.84;4962019;28;20245;-61
2022/05/15 00:48:37;;;;;;;4.63;4.30;;;;;;;9.66;100.00;97317.72;4965390;28;20245;-63
2022/05/15 00:51:11;;;;;;;4.53;4.20;;;;;;;9.67;100.00;97314.09;4969124;28;20296;-63
2022/05/15 00:53:40;;;;;;;5.30;4.77;;;;;;;9.54;100.00;97314.66;4927148;28;20250;-63
2022/05/15 00:56:08;;;;;;;5.47;4.43;;;;;;;9.51;100.00;97310.53;4967090;28;20249;-62
2022/05/15 00:58:42;;;;;;;5.93;4.30;;;;;;;9.44;100.00;97321.97;4935789;28;20206;-66
2022/05/15 01:01:10;;;;;;;5.03;4.20;;;;;;;9.41;100.00;97320.50;4970825;28;20589;-60
2022/05/15 01:03:38;;;;;;;4.17;3.73;;;;;;;9.49;100.00;97319.66;4968039;28;20257;-64
2022/05/15 01:06:09;;;;;;;6.10;4.50;;;;;;;9.41;100.00;97318.66;4969854;28;20217;-57
2022/05/15 01:08:37;;;;;;;4.97;4.33;;;;;;;9.36;100.00;97320.22;4931522;28;20335;-62
2022/05/15 01:11:10;;;;;;;4.57;4.27;;;;;;;9.32;100.00;97316.25;4969431;28;20493;-54
2022/05/15 01:13:40;;;;;;;4.63;4.23;;;;;;;9.22;100.00;97317.28;4948618;28;20618;-66
2022/05/15 01:16:08;;;;;;;4.33;4.03;;;;;;;9.21;100.00;97318.28;4955224;28;20214;-62
2022/05/15 01:19:20;;;;;;;4.00;3.70;;;;;;;9.17;100.00;97319.63;4957862;28;20206;-64
2022/05/15 01:21:56;;;;;;;4.77;4.37;;;;;;;9.15;100.00;97318.97;4962917;28;20289;-59
2022/05/15 01:24:24;;;;;;;5.90;4.23;;;;;;;9.11;100.00;97307.94;4930060;28;20648;-61
2022/05/15 01:26:52;;;;;;;4.33;4.03;;;;;;;9.12;100.00;97316.66;4961492;28;20212;-61
2022/05/15 01:29:28;;;;;;;6.83;3.97;;;;;;;9.11;100.00;97321.13;4948746;28;20244;-59
2022/05/15 01:31:57;;;;;;;5.17;4.67;;;;;;;9.06;100.00;97318.16;4952814;28;20245;-63
2022/05/15 01:34:25;;;;;;;4.37;4.07;;;;;;;9.03;100.00;97321.16;4962497;28;20329;-66
2022/05/15 01:36:55;;;;;;;6.27;4.30;;;;;;;9.00;100.00;97318.03;4962661;28;20221;-59
2022/05/15 01:39:24;;;;;;;5.47;4.53;;;;;;;8.97;100.00;97314.75;4927932;28;20301;-68
2022/05/15 01:41:52;;;;;;;4.83;4.37;;;;;;;9.02;100.00;97316.84;4969975;28;20237;-59
2022/05/15 01:44:21;;;;;;;5.93;4.10;;;;;;;8.97;100.00;97316.56;4951064;28;20312;-65
2022/05/15 01:46:50;;;;;;;7.80;4.23;;;;;;;8.96;100.00;97317.53;4952524;28;20233;-60
2022/05/15 01:49:18;;;;;;;4.50;4.20;;;;;;;8.93;100.00;97325.81;4965767;28;20206;-64
2022/05/15 01:51:47;;;;;;;5.03;4.67;;;;;;;8.83;100.00;97323.34;4966911;28;20276;-56
2022/05/15 01:54:17;;;;;;;5.40;4.47;;;;;;;8.82;100.00;97319.06;4966508;28;20225;-64
2022/05/15 01:56:45;;;;;;;4.90;4.50;;;;;;;8.78;100.00;97323.88;4927189;28;20213;-59
2022/05/15 01:59:13;;;;;;;8.37;4.80;;;;;;;8.78;100.00;97317.75;4966674;28;20292;-62
2022/05/15 02:01:41;;;;;;;6.83;4.50;;;;;;;8.74;100.00;97324.38;4935710;28;20221;-55
2022/05/15 02:04:10;;;;;;;4.93;4.43;;;;;;;8.74;100.00;97321.75;4965456;28;20686;-63
2022/05/15 02:06:38;;;;;;;5.60;4.30;;;;;;;8.69;100.00;97319.59;4964808;28;20217;-62
2022/05/15 02:09:07;;;;;;;5.50;5.07;;;;;;;8.71;100.00;97325.53;4964397;28;20296;-63
2022/05/15 02:11:38;;;;;;;4.60;4.20;;;;;;;8.75;100.00;97323.38;4923113;28;20616;-63
2022/05/15 02:14:07;;;;;;;5.17;4.70;;;;;;;8.66;100.00;97315.47;4970161;28;20669;-61
2022/05/15 02:16:36;;;;;;;4.57;4.27;;;;;;;8.60;100.00;97316.16;4941827;28;20222;-60
2022/05/15 02:19:12;;;;;;;6.57;4.93;;;;;;;8.52;100.00;97309.06;4946744;28;20979;-57
2022/05/15 02:21:41;;;;;;;7.13;4.37;;;;;;;8.48;100.00;97306.88;4964218;28;20220;-64
2022/05/15 02:24:10;;;;;;;5.03;4.63;;;;;;;8.47;100.00;97318.44;4961449;28;20479;-60
2022/05/15 02:26:40;;;;;;;5.63;5.07;;;;;;;8.52;100.00;97311.72;4968014;28;20245;-63
2022/05/15 02:29:09;;;;;;;4.87;4.43;;;;;;;8.44;100.00;97308.22;4936510;28;20416;-65
2022/05/15 02:31:37;;;;;;;4.73;4.33;;;;;;;8.39;100.00;97308.75;4970070;28;20233;-59
2022/05/15 02:34:06;;;;;;;5.53;4.70;;;;;;;8.44;100.00;97311.69;4930306;28;20755;-55
2022/05/15 02:36:34;;;;;;;4.97;4.57;;;;;;;8.36;100.00;97307.25;4966633;28;20217;-64
2022/05/15 02:39:08;;;;;;;5.47;4.97;;;;;;;8.36;100.00;97291.41;4960616;28;20220;-64
2022/05/15 02:41:36;;;;;;;4.97;4.67;;;;;;;8.32;100.00;97313.84;4952963;28;20217;-59
2022/05/15 02:44:06;;;;;;;5.27;4.77;;;;;;;8.29;100.00;97321.25;4923862;28;20693;-60
2022/05/15 02:46:34;;;;;;;5.00;4.70;;;;;;;8.19;100.00;97317.00;4964862;28;20210;-58
2022/05/15 02:51:48;;;;;;;10.33;5.27;;;;;;;8.11;100.00;97311.72;4965737;28;20293;-64
2022/05/15 02:54:16;;;;;;;5.07;4.77;;;;;;;8.06;100.00;97316.66;4963249;28;20340;-61
2022/05/15 02:56:45;;;;;;;5.50;5.10;;;;;;;7.99;100.00;97316.50;4952563;28;20598;-63
2022/05/15 02:59:14;;;;;;;5.20;4.80;;;;;;;7.94;100.00;97319.59;4926125;28;20209;-60
2022/05/15 03:01:42;;;;;;;4.97;4.57;;;;;;;7.94;100.00;97313.53;4967948;28;20292;-63
2022/05/15 03:04:10;;;;;;;6.03;5.07;;;;;;;7.95;100.00;97312.53;4945577;28;20417;-63
2022/05/15 03:06:38;;;;;;;5.67;5.10;;;;;;;7.97;100.00;97319.31;4963385;28;20683;-58
2022/05/15 03:09:06;;;;;;;4.67;4.37;;;;;;;8.00;100.00;97312.84;4962279;28;20205;-61
2022/05/15 03:11:34;;;;;;;5.23;4.77;;;;;;;7.91;100.00;97303.31;4964020;28;20209;-61
2022/05/15 03:14:02;;;;;;;5.53;5.13;;;;;;;7.96;100.00;97315.03;4947935;28;20500;-62
2022/05/15 03:16:32;;;;;;;5.87;5.13;;;;;;;7.91;100.00;97317.31;4926540;28;20703;-62
2022/05/15 03:19:00;;;;;;;4.90;4.60;;;;;;;7.94;100.00;97316.97;4944535;28;20392;-62
2022/05/15 03:21:31;;;;;;;7.10;5.07;;;;;;;7.91;100.00;97313.84;4964251;28;20292;-61
2022/05/15 03:24:00;;;;;;;6.10;5.40;;;;;;;7.97;100.00;97316.66;4959030;28;20313;-62
2022/05/15 03:26:31;;;;;;;5.33;4.93;;;;;;;7.87;100.00;97323.09;4964833;28;20206;-59
2022/05/15 03:28:59;;;;;;;5.83;5.27;;;;;;;7.90;100.00;97317.47;4946833;28;20806;-61
2022/05/15 03:31:27;;;;;;;5.80;5.30;;;;;;;7.82;100.00;97319.13;4926812;28;20220;-61
2022/05/15 03:33:57;;;;;;;5.30;4.97;;;;;;;7.82;100.00;97318.28;4967064;28;20238;-63
2022/05/15 03:36:25;;;;;;;5.27;4.87;;;;;;;7.79;100.00;97315.97;4949248;28;20221;-59
2022/05/15 03:38:55;;;;;;;5.03;4.73;;;;;;;7.77;100.00;97317.97;4960950;28;20726;-64
2022/05/15 03:41:24;;;;;;;5.70;5.20;;;;;;;7.86;100.00;97321.44;4964435;28;20201;-64
2022/05/15 03:43:52;;;;;;;5.63;5.13;;;;;;;7.77;100.00;97324.06;4949747;28;20240;-66
2022/05/15 03:46:20;;;;;;;5.37;4.97;;;;;;;7.75;100.00;97326.00;4923868;28;20613;-61
2022/05/15 03:48:48;;;;;;;6.23;5.40;;;;;;;7.72;100.00;97328.97;4964609;28;20305;-64
2022/05/15 03:51:17;;;;;;;6.77;6.23;;;;;;;7.73;100.00;97330.63;4945737;28;20448;-64
2022/05/15 03:53:45;;;;;;;5.80;5.30;;;;;;;7.77;100.00;97328.50;4965915;28;20252;-64
2022/05/15 03:56:14;;;;;;;5.60;5.10;;;;;;;7.84;100.00;97329.50;4966749;28;21369;-64
2022/05/15 03:58:42;;;;;;;5.30;4.80;;;;;;;7.89;100.00;97332.47;4951310;28;21023;-55
2022/05/15 04:01:13;;;;;;;5.57;5.10;;;;;;;7.87;100.00;97336.28;4963644;28;20231;-69
2022/05/15 04:03:42;;;;;;;4.93;4.53;;;;;;;7.83;100.00;97333.13;4951821;28;20536;-59
2022/05/15 04:06:10;;;;;;;5.47;4.97;;;;;;;7.83;100.00;97330.50;4926872;28;20809;-59
2022/05/15 04:08:39;;;;;;;6.37;5.70;;;;;;;7.86;100.00;97330.16;4952569;28;20218;-57
2022/05/15 04:11:07;;;;;;;5.77;5.27;;;;;;;7.89;100.00;97329.84;4947668;28;20228;-67
2022/05/15 04:13:35;;;;;;;4.73;4.43;;;;;;;8.02;100.00;97329.34;4950504;28;20230;-60
2022/05/15 04:16:04;;;;;;;5.70;4.90;;;;;;;8.13;100.00;97335.28;4948309;28;20730;-63
2022/05/15 04:18:32;;;;;;;6.03;5.53;;;;;;;8.22;100.00;97334.31;4924234;28;21073;-57
2022/05/15 04:21:00;;;;;;;7.18;6.57;;;;;;;8.34;100.00;97334.81;4958007;28;20543;-68
2022/05/15 04:23:29;;;;;;;6.00;5.53;;;;;;;8.43;100.00;97335.63;4948260;28;20229;-63
2022/05/15 04:25:58;;;;;;;5.70;5.22;;;;;;;8.58;100.00;97334.00;4948622;28;20816;-60
2022/05/15 04:28:26;;;;;;;6.38;5.78;;;;;;;8.73;100.00;97336.78;4964561;28;21009;-60
2022/05/15 04:30:54;;;;;;;6.55;5.88;;;;;;;8.82;100.00;97337.56;4946905;28;20467;-62
2022/05/15 04:33:22;;;;;;;5.80;5.32;;;;;;;8.94;100.00;97344.16;4906734;28;20459;-63
2022/05/15 04:35:50;;;;;;;5.15;4.82;;;;;;;9.08;100.00;97336.50;4965606;28;20535;-63
2022/05/15 04:38:18;;;;;;;6.35;5.75;;;;;;;9.14;100.00;97335.81;4951918;28;20587;-62
2022/05/15 04:40:46;;;;;;;5.60;5.10;;;;;;;9.25;100.00;97340.72;4934186;28;20224;-61
2022/05/15 04:43:16;;;;;;;5.93;5.53;;;;;;;9.36;100.00;97346.66;4970368;28;20633;-54
2022/05/15 04:45:44;;;;;;;5.07;4.67;;;;;;;9.42;100.00;97340.66;4952383;28;20414;-54
2022/05/15 04:48:14;;;;;;;6.57;5.90;;;;;;;9.62;100.00;97350.81;4932314;28;20233;-58
2022/05/15 04:50:43;;;;;;;5.97;5.47;;;;;;;9.64;100.00;97356.75;4965735;28;20272;-53
2022/05/15 04:53:11;;;;;;;5.50;5.10;;;;;;;9.88;100.00;97353.16;4954802;28;20293;-55
2022/05/15 04:55:39;;;;;;;5.53;5.03;;;;;;;9.92;100.00;97356.25;4947180;28;20232;-58
2022/05/15 04:58:07;;;;;;;6.10;5.70;;;;;;;10.05;100.00;97363.63;4967650;28;20237;-55
2022/05/15 05:00:37;;;;;;;6.30;5.80;;;;;;;10.16;100.00;97365.84;4954023;28;20632;-66
2022/05/15 05:03:05;;;;;;;7.47;5.27;;;;;;;10.36;100.00;97368.84;4936824;28;20218;-61
2022/05/15 05:05:34;;;;;;;6.33;5.77;;;;;;;10.60;100.00;97369.69;4966498;28;20210;-60
2022/05/15 05:08:02;;;;;;;5.53;5.07;;;;;;;10.75;100.00;97369.72;4952086;28;20312;-60
2022/05/15 05:10:35;;;;;;;5.07;4.67;;;;;;;10.93;100.00;97371.16;4950083;28;20209;-66
2022/05/15 05:13:03;;;;;;;6.50;4.90;;;;;;;11.17;100.00;97375.38;4967080;28;20293;-61
2022/05/15 05:15:31;;;;;;;7.37;5.83;;;;;;;11.28;100.00;97382.06;4962044;28;20944;-62
2022/05/15 05:18:00;;;;;;;5.57;5.00;;;;;;;11.42;100.00;97372.47;4922723;28;20256;-58
2022/05/15 05:20:28;;;;;;;5.30;4.80;;;;;;;11.51;100.00;97376.66;4966386;28;20294;-64
2022/05/15 05:22:56;;;;;;;5.40;4.97;;;;;;;11.71;100.00;97378.72;4954674;28;20213;-61
2022/05/15 05:25:25;;;;;;;6.43;4.80;;;;;;;11.78;100.00;97370.84;4967810;28;20229;-63
2022/05/15 05:27:53;;;;;;;5.20;4.67;;;;;;;11.99;100.00;97375.38;4963184;28;20912;-59
2022/05/15 05:30:24;;;;;;;5.97;4.57;;;;;;;12.07;100.00;97375.28;4965974;28;21456;-60
2022/05/15 05:32:52;;;;;;;4.57;4.20;;;;;;;12.20;100.00;97377.25;4956800;28;20251;-56
2022/05/15 05:35:24;;;;;;;4.77;4.47;;;;;;;12.29;100.00;97383.22;4940983;28;20229;-63
2022/05/15 05:37:53;;;;;;;4.80;4.37;;;;;;;12.49;100.00;97375.44;4954942;28;20376;-62
2022/05/15 05:40:21;;;;;;;5.57;4.77;;;;;;;12.77;100.00;97372.00;4968954;28;20214;-62
2022/05/15 05:42:49;;;;;;;5.73;5.23;;;;;;;12.80;100.00;97376.91;4961506;28;20234;-58
2022/05/15 05:45:18;;;;;;;5.47;5.00;;;;;;;12.87;100.00;97380.44;4969684;28;20229;-63
2022/05/15 05:47:48;;;;;;;8.43;7.30;;;;;;;12.93;100.00;97380.69;4956318;28;21039;-58
2022/05/15 05:50:17;;;;;;;5.67;5.17;;;;;;;12.95;100.00;97379.47;4940671;28;20217;-62
2022/05/15 05:52:47;;;;;;;5.77;5.17;;;;;;;13.13;100.00;97389.63;4948476;28;20209;-58
2022/05/15 05:55:17;;;;;;;5.80;5.10;;;;;;;13.14;100.00;97380.63;4956325;28;20360;-62
2022/05/15 05:57:45;;;;;;;5.00;4.60;;;;;;;13.47;100.00;97387.19;4957977;28;20205;-58
2022/05/15 06:00:17;;;;;;;5.23;4.90;;;;;;;13.34;100.00;97387.91;4969717;28;20212;-61
2022/05/15 06:02:45;;;;;;;5.40;4.90;;;;;;;13.56;100.00;97391.31;4958435;28;21209;-54
2022/05/15 06:05:13;;;;;;;7.80;5.30;;;;;;;13.82;100.00;97400.41;4934882;28;20244;-63
2022/05/15 06:07:41;;;;;;;4.53;4.23;;;;;;;13.86;100.00;97393.69;4969522;28;20305;-57
2022/05/15 06:10:13;;;;;;;4.83;4.47;;;;;;;14.07;100.00;97383.91;4957473;28;20863;-60
2022/05/15 06:12:42;;;;;;;4.80;4.50;;;;;;;14.29;100.00;97389.09;4957302;28;20435;-58
2022/05/15 06:15:11;;;;;;;5.93;4.77;;;;;;;14.15;100.00;97394.38;4973542;28;20793;-61
2022/05/15 06:17:40;;;;;;;5.13;4.00;;;;;;;14.18;100.00;97399.28;4956419;28;21639;-59
2022/05/15 06:20:10;;;;;;;4.60;4.10;;;;;;;14.07;100.00;97407.06;4935795;28;20216;-60
2022/05/15 06:22:38;;;;;;;4.87;4.43;;;;;;;14.09;100.00;97397.84;4969941;28;21051;-59
2022/05/15 06:25:07;;;;;;;4.63;4.27;;;;;;;14.29;100.00;97400.53;4953254;28;20762;-59
2022/05/15 06:27:39;;;;;;;4.80;4.27;;;;;;;14.36;100.00;97408.56;4955067;28;20977;-63
2022/05/15 06:30:08;;;;;;;5.07;4.67;;;;;;;14.47;100.00;97401.81;4968128;28;20691;-61
2022/05/15 06:32:36;;;;;;;3.93;3.70;;;;;;;14.53;100.00;97402.84;4968088;28;20197;-60
2022/05/15 06:35:05;;;;;;;4.83;4.20;;;;;;;14.72;100.00;97399.41;4960264;28;20316;-64
2022/05/15 06:37:33;;;;;;;5.00;4.30;;;;;;;14.81;100.00;97404.50;4939149;28;20225;-60
2022/05/15 06:40:02;;;;;;;5.53;4.37;;;;;;;15.07;100.00;97397.53;4958216;28;20233;-61
2022/05/15 06:42:30;;;;;;;4.37;3.97;;;;;;;15.47;100.00;97395.56;4955420;28;20404;-61
2022/05/15 06:45:00;;;;;;;4.73;3.57;;;;;;;15.53;100.00;97399.25;4969473;28;20328;-59
2022/05/15 06:47:31;;;;;;;4.30;3.90;;;;;;;15.69;100.00;97397.97;4966244;28;20695;-60
2022/05/15 06:50:00;;;;;;;4.83;4.07;;;;;;;15.97;100.00;97394.19;4963576;28;20210;-61
2022/05/15 06:52:28;;;;;;;4.67;4.07;;;;;;;16.29;100.00;97390.72;4936016;28;20225;-59
2022/05/15 06:54:56;;;;;;;5.07;4.00;;;;;;;16.46;100.00;97389.13;4972864;28;20233;-62
2022/05/15 06:57:29;;;;;;;3.63;3.33;;;;;;;16.61;100.00;97391.50;4941710;28;20222;-64
2022/05/15 06:59:58;;;;;;;4.37;3.40;;;;;;;16.79;100.00;97385.38;4971919;28;20226;-58
2022/05/15 07:02:29;;;;;;;3.67;3.37;;;;;;;16.93;100.00;97383.41;4967155;28;20216;-60
2022/05/15 07:04:58;;;;;;;5.43;3.70;;;;;;;17.18;100.00;97390.63;4971535;28;20232;-59
2022/05/15 07:07:26;;;;;;;3.87;3.30;;;;;;;17.38;100.00;97391.47;4933643;28;20671;-61
2022/05/15 07:09:54;;;;;;;3.93;3.43;;;;;;;17.47;100.00;97385.59;4972636;28;20706;-61
2022/05/15 07:12:22;;;;;;;3.40;3.10;;;;;;;17.59;98.22;97391.00;4943376;28;20259;-62
2022/05/15 07:14:50;;;;;;;4.33;3.30;;;;;;;17.53;93.77;97383.88;4969703;28;20229;-59
2022/05/15 07:17:18;;;;;;;4.43;3.40;;;;;;;17.80;88.31;97383.56;4966659;28;20236;-61
2022/05/15 07:19:48;;;;;;;2.93;2.73;;;;;;;17.82;90.81;97386.81;4965429;28;20619;-53
2022/05/15 07:22:16;;;;;;;4.00;3.07;;;;;;;17.90;93.33;97383.81;4936284;28;20209;-59
2022/05/15 07:24:44;;;;;;;3.87;3.20;;;;;;;18.05;87.53;97385.34;4969248;28;20217;-62
2022/05/15 07:27:12;;;;;;;3.20;2.90;;;;;;;18.19;87.46;97380.59;4949264;28;20233;-60
2022/05/15 07:29:40;;;;;;;2.90;2.60;;;;;;;18.32;87.09;97379.56;4959297;28;20892;-61
2022/05/15 07:32:10;;;;;;;3.97;3.00;;;;;;;18.47;90.19;97376.47;4970281;28;20206;-62
2022/05/15 07:34:39;;;;;;;3.23;2.93;;;;;;;18.66;86.78;97375.34;4968065;28;20380;-60
2022/05/15 07:37:11;;;;;;;3.47;3.17;;;;;;;18.73;86.05;97375.22;4938631;28;20244;-64
2022/05/15 07:39:39;;;;;;;4.37;3.00;;;;;;;18.88;85.78;97371.28;4971717;28;20197;-62
2022/05/15 07:42:08;;;;;;;3.17;2.97;;;;;;;19.01;83.43;97373.75;4957895;28;20432;-64
2022/05/15 07:44:36;;;;;;;3.37;3.00;;;;;;;19.12;84.25;97374.78;4954058;28;20466;-57
2022/05/15 07:47:05;;;;;;;3.47;3.17;;;;;;;19.43;85.47;97375.47;4974110;28;20327;-60
2022/05/15 07:49:34;;;;;;;4.63;2.53;;;;;;;19.42;79.34;97373.00;4968723;28;20487;-61
2022/05/15 07:52:02;;;;;;;4.97;2.93;;;;;;;19.53;77.37;97372.19;4970777;28;20291;-57
2022/05/15 07:54:33;;;;;;;2.73;2.50;;;;;;;19.54;78.78;97376.50;4934627;28;20332;-63
2022/05/15 07:57:01;;;;;;;2.83;2.63;;;;;;;19.49;76.39;97368.31;4955725;28;20230;-66
2022/05/15 07:59:30;;;;;;;2.87;2.67;;;;;;;19.63;74.86;97374.25;4971994;28;20206;-63
2022/05/15 08:01:59;;;;;;;4.40;2.73;;;;;;;19.72;74.25;97372.84;4956648;28;20476;-63
2022/05/15 08:04:28;;;;;;;2.77;2.60;;;;;;;19.68;74.14;97368.97;4971044;28;20230;-55
2022/05/15 08:09:43;;;;;;;2.53;2.33;;;;;;;19.94;69.73;97370.31;4935589;28;20702;-58
2022/05/15 08:12:11;;;;;;;3.87;2.60;;;;;;;20.10;64.94;97366.06;4956657;28;20519;-61
2022/05/15 08:14:39;;;;;;;2.87;2.67;;;;;;;20.05;66.98;97363.25;4973405;28;20229;-57
2022/05/15 08:17:07;;;;;;;3.03;2.80;;;;;;;19.92;70.91;97358.16;4954586;28;20752;-58
2022/05/15 08:25:08;;;;;;;4.47;2.77;;;;;;;20.08;66.16;97351.19;4913676;28;20237;-56
2022/05/15 08:27:36;;;;;;;3.37;3.07;;;;;;;20.05;68.34;97343.63;4965489;28;20640;-63
2022/05/15 08:30:05;;;;;;;2.83;2.63;;;;;;;19.88;71.58;97338.16;4963923;28;20220;-55
2022/05/15 08:32:33;;;;;;;3.37;3.07;;;;;;;20.18;70.93;97337.94;4951246;28;20214;-61
2022/05/15 08:35:02;;;;;;;3.03;2.80;;;;;;;20.41;65.79;97340.72;4969416;28;20253;-58
2022/05/15 08:37:30;;;;;;;4.53;3.43;;;;;;;20.41;66.27;97343.41;4965535;28;20770;-63
2022/05/15 08:39:59;;;;;;;5.00;3.07;;;;;;;20.35;62.26;97350.59;4901181;28;21131;-54
2022/05/15 08:42:34;;;;;;;4.17;2.87;;;;;;;20.52;64.12;97340.66;4971354;28;20212;-61
2022/05/15 08:45:03;;;;;;;3.57;2.70;;;;;;;20.53;62.18;97352.25;4962208;28;20454;-60
2022/05/15 08:47:34;;;;;;;2.43;2.20;;;;;;;20.58;56.00;97352.31;4956229;28;20332;-60
2022/05/15 08:50:11;;;;;;;2.87;2.60;;;;;;;20.76;62.14;97347.72;4966797;28;20319;-55
2022/05/15 08:52:44;;;;;;;2.43;2.33;;;;;;;21.02;57.93;97348.16;4966710;28;20214;-63
2022/05/15 08:55:15;;;;;;;3.33;2.80;;;;;;;21.06;56.49;97349.28;4938810;28;20240;-56
2022/05/15 08:57:49;;;;;;;2.60;2.40;;;;;;;21.15;58.57;97347.78;4957882;28;20324;-65
2022/05/15 09:00:23;;;;;;;3.17;2.83;;;;;;;21.34;55.53;97348.31;4972556;28;20206;-53
2022/05/15 09:02:51;;;;;;;2.30;2.20;;;;;;;21.34;56.46;97351.00;4955000;28;20296;-62
2022/05/15 09:05:19;;;;;;;3.20;2.80;;;;;;;21.49;54.15;97355.78;4969404;28;20446;-54
2022/05/15 09:07:57;;;;;;;4.20;2.80;;;;;;;21.24;52.58;97353.56;4950635;28;20449;-56
2022/05/15 09:10:31;;;;;;;3.03;2.70;;;;;;;21.24;58.94;97356.25;4920798;28;21057;-57
2022/05/15 09:13:11;;;;;;;3.63;2.77;;;;;;;21.44;57.86;97357.59;4961690;28;20674;-58
2022/05/15 09:15:44;;;;;;;3.07;2.77;;;;;;;21.59;51.78;97351.56;4950064;28;20217;-56
2022/05/15 09:18:18;;;;;;;14.63;3.40;;;;;;;21.46;47.16;97342.81;4959179;28;20610;-58
2022/05/15 09:20:58;;;;;;;3.47;2.20;;;;;;;21.74;49.29;97345.56;4971536;28;20213;-52
2022/05/15 09:23:29;;;;;;;3.10;2.83;;;;;;;21.65;50.88;97348.72;4965383;28;20416;-49
2022/05/15 09:25:59;;;;;;;2.03;1.93;;;;;;;21.79;50.85;97351.84;4939853;28;20229;-51
2022/05/15 09:28:30;;;;;;;3.53;2.40;;;;;;;21.91;47.33;97342.78;4958102;28;20197;-53
2022/05/15 09:31:00;;;;;;;2.30;2.13;;;;;;;21.74;48.04;97342.88;4945008;28;20804;-56
2022/05/15 09:33:33;;;;;;;2.93;2.73;;;;;;;21.81;47.15;97341.63;4947958;28;20229;-58
2022/05/15 09:36:20;;;;;;;2.53;2.33;;;;;;;21.64;49.36;97339.00;4957086;28;20708;-50
2022/05/15 09:38:49;;;;;;;4.53;2.60;;;;;;;21.59;48.03;97347.00;4966958;28;20225;-56
2022/05/15 09:44:08;;;;;;;2.83;2.37;;;;;;;21.78;48.75;97352.09;4969362;28;20467;-53
2022/05/15 09:46:40;;;;;;;2.23;2.13;;;;;;;21.86;46.55;97348.97;4942645;28;20210;-57
2022/05/15 09:49:18;;;;;;;5.13;4.63;;;;;;;21.83;43.55;97350.28;4967693;28;20230;-55
2022/05/15 09:51:49;;;;;;;3.63;2.37;;;;;;;21.78;43.94;97346.69;4948337;28;20308;-52
2022/05/15 09:54:30;;;;;;;4.10;2.00;;;;;;;21.76;46.07;97343.44;4968685;28;20564;-55
2022/05/15 09:57:14;;;;;;;4.10;2.70;;;;;;;21.82;45.49;97342.44;4926806;28;20303;-54
2022/05/15 09:59:44;;;;;;;3.17;2.00;;;;;;;21.92;42.12;97337.16;4971575;28;20201;-52
2022/05/15 10:02:25;;;;;;;1.80;1.70;;;;;;;22.05;45.06;97327.84;4940354;28;20220;-55
2022/05/15 10:04:55;;;;;;;3.13;2.00;;;;;;;22.05;43.75;97327.84;4931763;28;20239;-58
2022/05/15 10:07:33;;;;;;;2.17;1.97;;;;;;;22.50;46.71;97330.41;4918721;28;20238;-58
2022/05/15 10:10:23;;;;;;;2.17;1.80;;;;;;;22.46;45.61;97329.31;4960270;28;20332;-59
2022/05/15 10:12:55;;;;;;;2.60;2.40;;;;;;;22.40;48.52;97321.16;4942266;28;20217;-59
2022/05/15 10:15:26;;;;;;;2.45;2.25;;;;;;;22.48;44.14;97316.38;4948611;28;21188;-61
2022/05/15 10:17:56;;;;;;;5.10;2.03;;;;;;;22.42;42.31;97320.88;4951855;28;20221;-58
2022/05/15 10:20:26;;;;;;;2.23;2.03;;;;;;;22.33;43.94;97315.13;4966309;28;20293;-60
2022/05/15 10:22:59;;;;;;;3.33;2.00;;;;;;;22.62;44.01;97309.44;4960232;28;20290;-61
2022/05/15 10:25:37;;;;;;;2.90;2.45;;;;;;;22.76;44.26;97315.22;4956395;28;20457;-59
2022/05/15 10:28:26;;;;;;;2.45;2.05;;;;;;;22.72;43.40;97302.47;4936101;28;20446;-56
2022/05/15 10:31:02;;;;;;;2.03;1.93;;;;;;;22.55;44.19;97303.47;4965465;28;21044;-55
2022/05/15 10:33:36;;;;;;;2.63;2.42;;;;;;;22.63;41.12;97302.16;4950550;28;20459;-57
2022/05/15 10:36:12;;;;;;;2.65;2.28;;;;;;;22.59;43.93;97301.06;4955434;28;20577;-58
2022/05/15 10:38:46;;;;;;;2.07;1.97;;;;;;;22.73;43.81;97304.09;4943156;28;20221;-53
2022/05/15 10:41:19;;;;;;;1.90;1.80;;;;;;;22.78;40.33;97293.38;4961659;28;20213;-52
2022/05/15 10:43:59;;;;;;;2.57;2.17;;;;;;;22.58;40.60;97291.34;4918088;28;20244;-56
2022/05/15 10:46:34;;;;;;;2.37;1.70;;;;;;;22.86;40.91;97300.13;4943472;28;20528;-59
2022/05/15 10:49:14;;;;;;;2.70;2.50;;;;;;;22.80;41.64;97281.22;4967514;28;20483;-59
2022/05/15 10:51:48;;;;;;;2.27;2.13;;;;;;;23.00;43.89;97285.13;4953981;28;20410;-57
2022/05/15 10:57:24;;;;;;;2.03;1.80;;;;;;;22.88;38.24;97279.09;4912447;28;20318;-59
2022/05/15 10:59:56;;;;;;;2.50;2.30;;;;;;;22.78;39.91;97269.84;4951320;28;20367;-57
2022/05/15 11:02:40;;;;;;;2.23;2.10;;;;;;;22.79;39.39;97273.38;4950870;28;20862;-57
2022/05/15 11:05:10;;;;;;;2.67;2.20;;;;;;;22.92;40.97;97266.69;4951318;28;21690;-55
2022/05/15 11:07:43;;;;;;;2.97;2.67;;;;;;;23.02;39.75;97274.84;4951294;28;20454;-57
2022/05/15 11:10:18;;;;;;;3.80;2.30;;;;;;;22.89;38.40;97259.09;4963601;28;20205;-53
2022/05/15 11:12:51;;;;;;;2.13;1.87;;;;;;;23.05;40.78;97258.13;4935656;28;20560;-54
2022/05/15 11:15:30;;;;;;;2.03;1.93;;;;;;;23.20;40.13;97261.94;4958240;28;20244;-55
2022/05/15 11:18:07;;;;;;;2.30;1.57;;;;;;;23.31;38.85;97252.84;4947078;28;20201;-55
2022/05/15 11:20:38;;;;;;;2.10;1.87;;;;;;;23.31;38.66;97252.84;4954740;28;20209;-56
2022/05/15 11:23:11;;;;;;;2.87;2.13;;;;;;;23.45;39.63;97253.13;4966467;28;20589;-57
2022/05/15 11:25:45;;;;;;;2.30;2.07;;;;;;;23.56;37.69;97251.28;4963074;28;20531;-55
2022/05/15 11:28:19;;;;;;;2.03;1.70;;;;;;;23.46;34.78;97253.97;4936740;28;20209;-58
2022/05/15 11:31:00;;;;;;;2.00;1.90;;;;;;;23.56;35.14;97248.56;4936065;28;20210;-58
2022/05/15 11:33:34;;;;;;;2.20;2.00;;;;;;;23.89;37.07;97241.06;4947098;28;20229;-54
2022/05/15 11:36:11;;;;;;;2.40;1.80;;;;;;;23.94;34.42;97234.84;4950675;28;20460;-57
2022/05/15 11:38:48;;;;;;;3.10;2.00;;;;;;;23.72;36.08;97227.00;4945900;28;20958;-58
2022/05/15 11:41:32;;;;;;;3.47;1.50;;;;;;;23.73;35.58;97225.91;4969881;28;20205;-57
2022/05/15 11:44:03;;;;;;;2.30;2.07;;;;;;;24.03;36.23;97227.03;4934494;28;20224;-56
2022/05/15 11:47:00;;;;;;;2.70;2.50;;;;;;;24.16;34.31;97231.91;4944309;28;20562;-59
2022/05/15 11:49:34;;;;;;;2.00;1.80;;;;;;;24.50;36.91;97223.22;4952357;28;20206;-57
2022/05/15 11:52:18;;;;;;;2.63;2.43;;;;;;;24.74;35.10;97214.50;4955070;28;20217;-54
2022/05/15 11:54:49;;;;;;;3.40;2.07;;;;;;;24.67;37.23;97217.50;4963035;28;20772;-56
2022/05/15 11:57:41;;;;;;;2.20;1.90;;;;;;;24.57;34.63;97215.59;4966566;28;20214;-57
2022/05/15 12:00:22;;;;;;;2.20;2.10;;;;;;;24.29;34.09;97208.91;4932727;28;20225;-55
2022/05/15 12:02:57;;;;;;;5.37;2.50;;;;;;;24.29;33.61;97214.31;4950431;28;20211;-56
2022/05/15 12:05:38;;;;;;;2.67;2.47;;;;;;;24.63;34.18;97204.75;4956466;28;20520;-56